sensor_id;sensor_type;location;lat;lon;timestamp;temperature;humidity
31131;DHT22;20292;50.944;4.034;2022-09-09T00:02:10;17.10;99.90
31131;DHT22;20292;50.944;4.034;2022-09-09T00:04:39;17.10;99.90
31131;DHT22;20292;50.944;4.034;2022-09-09T00:07:17;17.00;99.90
31131;DHT22;20292;50.944;4.034;2022-09-09T00:09:51;17.00;99.90
31131;DHT22;20292;50.944;4.034;2022-09-09T00:12:34;17.00;99.90
31131;DHT22;20292;50.944;4.034;2022-09-09T00:15:12;17.00;99.90
31131;DHT22;20292;50.944;4.034;2022-09-09T00:20:49;16.90;99.90
31131;DHT22;20292;50.944;4.034;2022-09-09T00:23:53;16.90;99.90
31131;DHT22;20292;50.944;4.034;2022-09-09T00:26:38;17.00;99.90
31131;DHT22;20292;50.944;4.034;2022-09-09T00:29:28;16.90;99.90
31131;DHT22;20292;50.944;4.034;2022-09-09T00:32:07;16.90;99.90
31131;DHT22;20292;50.944;4.034;2022-09-09T00:34:36;16.90;99.90
31131;DHT22;20292;50.944;4.034;2022-09-09T00:37:05;16.90;99.90
31131;DHT22;20292;50.944;4.034;2022-09-09T00:39:45;16.80;99.90
31131;DHT22;20292;50.944;4.034;2022-09-09T00:47:52;16.90;99.90
31131;DHT22;20292;50.944;4.034;2022-09-09T00:50:43;17.00;99.90
31131;DHT22;20292;50.944;4.034;2022-09-09T00:56:09;17.00;99.90
31131;DHT22;20292;50.944;4.034;2022-09-09T00:58:37;17.00;99.90
31131;DHT22;20292;50.944;4.034;2022-09-09T01:01:10;17.00;99.90
31131;DHT22;20292;50.944;4.034;2022-09-09T01:03:46;17.00;99.90
31131;DHT22;20292;50.944;4.034;2022-09-09T01:06:29;16.90;99.90
31131;DHT22;20292;50.944;4.034;2022-09-09T01:12:17;17.00;99.90
31131;DHT22;20292;50.944;4.034;2022-09-09T01:14:48;17.00;99.90
31131;DHT22;20292;50.944;4.034;2022-09-09T01:17:23;17.00;99.90
31131;DHT22;20292;50.944;4.034;2022-09-09T01:20:08;17.10;99.90
31131;DHT22;20292;50.944;4.034;2022-09-09T01:22:52;17.10;99.90
31131;DHT22;20292;50.944;4.034;2022-09-09T01:28:11;17.00;99.90
31131;DHT22;20292;50.944;4.034;2022-09-09T01:30:40;17.00;99.90
31131;DHT22;20292;50.944;4.034;2022-09-09T01:33:16;17.00;99.90
31131;DHT22;20292;50.944;4.034;2022-09-09T01:35:49;17.00;99.90
31131;DHT22;20292;50.944;4.034;2022-09-09T01:38:16;17.00;99.90
31131;DHT22;20292;50.944;4.034;2022-09-09T01:40:43;16.90;99.90
31131;DHT22;20292;50.944;4.034;2022-09-09T01:43:09;17.00;99.90
31131;DHT22;20292;50.944;4.034;2022-09-09T01:45:35;16.90;99.90
31131;DHT22;20292;50.944;4.034;2022-09-09T01:48:01;16.90;99.90
31131;DHT22;20292;50.944;4.034;2022-09-09T01:50:28;16.90;99.90
31131;DHT22;20292;50.944;4.034;2022-09-09T01:52:57;16.90;99.90
31131;DHT22;20292;50.944;4.034;2022-09-09T01:55:58;16.80;99.90
31131;DHT22;20292;50.944;4.034;2022-09-09T01:59:03;16.80;99.90
31131;DHT22;20292;50.944;4.034;2022-09-09T02:03:57;16.80;99.90
31131;DHT22;20292;50.944;4.034;2022-09-09T02:06:28;16.80;99.90
31131;DHT22;20292;50.944;4.034;2022-09-09T02:08:57;16.80;99.90
31131;DHT22;20292;50.944;4.034;2022-09-09T02:11:27;16.70;99.90
31131;DHT22;20292;50.944;4.034;2022-09-09T02:14:00;16.70;99.90
31131;DHT22;20292;50.944;4.034;2022-09-09T02:16:42;16.70;99.90
31131;DHT22;20292;50.944;4.034;2022-09-09T02:21:49;16.70;99.90
31131;DHT22;20292;50.944;4.034;2022-09-09T02:24:16;16.70;99.90
31131;DHT22;20292;50.944;4.034;2022-09-09T02:26:43;16.70;99.90
31131;DHT22;20292;50.944;4.034;2022-09-09T02:29:16;16.60;99.90
31131;DHT22;20292;50.944;4.034;2022-09-09T02:31:44;16.70;99.90
31131;DHT22;20292;50.944;4.034;2022-09-09T02:34:12;16.70;99.90
31131;DHT22;20292;50.944;4.034;2022-09-09T02:36:41;16.70;99.90
31131;DHT22;20292;50.944;4.034;2022-09-09T02:39:10;16.70;99.90
31131;DHT22;20292;50.944;4.034;2022-09-09T02:41:38;16.80;99.90
31131;DHT22;20292;50.944;4.034;2022-09-09T02:44:15;16.80;99.90
31131;DHT22;20292;50.944;4.034;2022-09-09T02:55:47;16.90;99.90
31131;DHT22;20292;50.944;4.034;2022-09-09T02:58:16;16.80;99.90
31131;DHT22;20292;50.944;4.034;2022-09-09T03:00:45;16.80;99.90
31131;DHT22;20292;50.944;4.034;2022-09-09T03:03:12;16.70;99.90
31131;DHT22;20292;50.944;4.034;2022-09-09T03:05:38;16.80;99.90
31131;DHT22;20292;50.944;4.034;2022-09-09T03:08:04;16.80;99.90
31131;DHT22;20292;50.944;4.034;2022-09-09T03:10:31;16.70;99.90
31131;DHT22;20292;50.944;4.034;2022-09-09T03:12:57;16.70;99.90
31131;DHT22;20292;50.944;4.034;2022-09-09T03:15:22;16.70;99.90
31131;DHT22;20292;50.944;4.034;2022-09-09T03:17:48;16.80;99.90
31131;DHT22;20292;50.944;4.034;2022-09-09T03:20:13;16.70;99.90
31131;DHT22;20292;50.944;4.034;2022-09-09T03:22:39;16.70;99.90
31131;DHT22;20292;50.944;4.034;2022-09-09T03:25:05;16.70;99.90
31131;DHT22;20292;50.944;4.034;2022-09-09T03:27:32;16.70;99.90
31131;DHT22;20292;50.944;4.034;2022-09-09T03:29:58;16.70;99.90
31131;DHT22;20292;50.944;4.034;2022-09-09T03:32:24;16.70;99.90
31131;DHT22;20292;50.944;4.034;2022-09-09T03:34:51;16.70;99.90
31131;DHT22;20292;50.944;4.034;2022-09-09T03:37:18;16.70;99.90
31131;DHT22;20292;50.944;4.034;2022-09-09T03:39:44;16.70;99.90
31131;DHT22;20292;50.944;4.034;2022-09-09T03:42:12;16.70;99.90
31131;DHT22;20292;50.944;4.034;2022-09-09T03:44:39;16.70;99.90
31131;DHT22;20292;50.944;4.034;2022-09-09T03:47:05;16.70;99.90
31131;DHT22;20292;50.944;4.034;2022-09-09T03:49:31;16.80;99.90
31131;DHT22;20292;50.944;4.034;2022-09-09T03:51:57;16.80;99.90
31131;DHT22;20292;50.944;4.034;2022-09-09T03:54:24;16.90;99.90
31131;DHT22;20292;50.944;4.034;2022-09-09T03:56:50;16.90;99.90
31131;DHT22;20292;50.944;4.034;2022-09-09T03:59:16;16.90;99.90
31131;DHT22;20292;50.944;4.034;2022-09-09T04:01:41;16.90;99.90
31131;DHT22;20292;50.944;4.034;2022-09-09T04:04:07;16.90;99.90
31131;DHT22;20292;50.944;4.034;2022-09-09T04:06:34;16.90;99.90
31131;DHT22;20292;50.944;4.034;2022-09-09T04:09:00;16.80;99.90
31131;DHT22;20292;50.944;4.034;2022-09-09T04:11:27;16.80;99.90
31131;DHT22;20292;50.944;4.034;2022-09-09T04:13:53;16.80;99.90
31131;DHT22;20292;50.944;4.034;2022-09-09T04:16:19;16.80;99.90
31131;DHT22;20292;50.944;4.034;2022-09-09T04:18:46;16.80;99.90
31131;DHT22;20292;50.944;4.034;2022-09-09T04:21:12;16.80;99.90
31131;DHT22;20292;50.944;4.034;2022-09-09T04:23:38;16.80;99.90
31131;DHT22;20292;50.944;4.034;2022-09-09T04:26:04;16.90;99.90
31131;DHT22;20292;50.944;4.034;2022-09-09T04:31:11;16.80;99.90
31131;DHT22;20292;50.944;4.034;2022-09-09T04:33:39;16.80;99.90
31131;DHT22;20292;50.944;4.034;2022-09-09T04:36:05;16.80;99.90
31131;DHT22;20292;50.944;4.034;2022-09-09T04:38:31;16.80;99.90
31131;DHT22;20292;50.944;4.034;2022-09-09T04:40:57;16.80;99.90
31131;DHT22;20292;50.944;4.034;2022-09-09T04:43:22;16.80;99.90
31131;DHT22;20292;50.944;4.034;2022-09-09T04:45:50;16.80;99.90
31131;DHT22;20292;50.944;4.034;2022-09-09T04:48:17;16.90;99.90
31131;DHT22;20292;50.944;4.034;2022-09-09T04:50:42;16.90;99.90
31131;DHT22;20292;50.944;4.034;2022-09-09T04:53:08;16.90;99.90
31131;DHT22;20292;50.944;4.034;2022-09-09T04:55:34;16.90;99.90
31131;DHT22;20292;50.944;4.034;2022-09-09T04:58:07;16.90;99.90
31131;DHT22;20292;50.944;4.034;2022-09-09T05:00:34;16.90;99.90
31131;DHT22;20292;50.944;4.034;2022-09-09T05:03:04;16.80;99.90
31131;DHT22;20292;50.944;4.034;2022-09-09T05:05:31;16.90;99.90
31131;DHT22;20292;50.944;4.034;2022-09-09T05:08:04;17.00;99.90
31131;DHT22;20292;50.944;4.034;2022-09-09T05:10:31;17.00;99.90
31131;DHT22;20292;50.944;4.034;2022-09-09T05:12:57;17.10;99.90
31131;DHT22;20292;50.944;4.034;2022-09-09T05:15:23;17.00;99.90
31131;DHT22;20292;50.944;4.034;2022-09-09T05:17:49;17.00;99.90
31131;DHT22;20292;50.944;4.034;2022-09-09T05:20:14;17.00;99.90
31131;DHT22;20292;50.944;4.034;2022-09-09T05:22:40;17.10;99.90
31131;DHT22;20292;50.944;4.034;2022-09-09T05:25:06;17.20;99.90
31131;DHT22;20292;50.944;4.034;2022-09-09T05:27:36;17.30;99.90
31131;DHT22;20292;50.944;4.034;2022-09-09T05:30:01;17.30;99.90
31131;DHT22;20292;50.944;4.034;2022-09-09T05:32:27;17.30;99.90
31131;DHT22;20292;50.944;4.034;2022-09-09T05:34:57;17.40;99.90
31131;DHT22;20292;50.944;4.034;2022-09-09T05:37:23;17.40;99.90
31131;DHT22;20292;50.944;4.034;2022-09-09T05:39:49;17.50;99.90
31131;DHT22;20292;50.944;4.034;2022-09-09T05:42:14;17.40;99.90
31131;DHT22;20292;50.944;4.034;2022-09-09T05:44:40;17.40;99.90
31131;DHT22;20292;50.944;4.034;2022-09-09T05:47:08;17.40;99.90
31131;DHT22;20292;50.944;4.034;2022-09-09T05:49:34;17.40;99.90
31131;DHT22;20292;50.944;4.034;2022-09-09T05:52:00;17.40;99.90
31131;DHT22;20292;50.944;4.034;2022-09-09T05:54:26;17.40;99.90
31131;DHT22;20292;50.944;4.034;2022-09-09T05:56:51;17.50;99.90
31131;DHT22;20292;50.944;4.034;2022-09-09T05:59:19;17.60;99.90
31131;DHT22;20292;50.944;4.034;2022-09-09T06:01:45;17.80;99.90
31131;DHT22;20292;50.944;4.034;2022-09-09T06:04:10;18.00;99.90
31131;DHT22;20292;50.944;4.034;2022-09-09T06:06:37;18.10;99.90
31131;DHT22;20292;50.944;4.034;2022-09-09T06:09:06;18.10;99.90
31131;DHT22;20292;50.944;4.034;2022-09-09T06:11:36;18.20;99.90
31131;DHT22;20292;50.944;4.034;2022-09-09T06:14:02;18.20;99.90
31131;DHT22;20292;50.944;4.034;2022-09-09T06:16:29;18.20;99.90
31131;DHT22;20292;50.944;4.034;2022-09-09T06:18:56;18.30;99.90
31131;DHT22;20292;50.944;4.034;2022-09-09T06:21:25;18.10;99.90
31131;DHT22;20292;50.944;4.034;2022-09-09T06:23:51;18.10;99.90
31131;DHT22;20292;50.944;4.034;2022-09-09T06:26:18;18.10;99.90
31131;DHT22;20292;50.944;4.034;2022-09-09T06:28:45;18.20;99.90
31131;DHT22;20292;50.944;4.034;2022-09-09T06:31:12;18.20;99.90
31131;DHT22;20292;50.944;4.034;2022-09-09T06:33:40;18.30;99.90
31131;DHT22;20292;50.944;4.034;2022-09-09T06:36:14;18.40;99.90
31131;DHT22;20292;50.944;4.034;2022-09-09T06:38:41;18.30;99.90
31131;DHT22;20292;50.944;4.034;2022-09-09T06:41:08;18.30;99.90
31131;DHT22;20292;50.944;4.034;2022-09-09T06:43:34;18.40;99.90
31131;DHT22;20292;50.944;4.034;2022-09-09T06:46:09;18.40;99.90
31131;DHT22;20292;50.944;4.034;2022-09-09T06:48:36;18.40;99.90
31131;DHT22;20292;50.944;4.034;2022-09-09T06:51:06;18.50;99.90
31131;DHT22;20292;50.944;4.034;2022-09-09T06:53:36;18.60;99.90
31131;DHT22;20292;50.944;4.034;2022-09-09T06:56:18;18.70;99.90
31131;DHT22;20292;50.944;4.034;2022-09-09T06:58:45;18.90;99.90
31131;DHT22;20292;50.944;4.034;2022-09-09T07:01:13;19.10;99.90
31131;DHT22;20292;50.944;4.034;2022-09-09T07:03:39;19.10;99.90
31131;DHT22;20292;50.944;4.034;2022-09-09T07:06:06;19.20;99.90
31131;DHT22;20292;50.944;4.034;2022-09-09T07:08:33;19.20;99.90
31131;DHT22;20292;50.944;4.034;2022-09-09T07:11:06;19.10;99.90
31131;DHT22;20292;50.944;4.034;2022-09-09T07:13:32;19.20;99.90
31131;DHT22;20292;50.944;4.034;2022-09-09T07:16:09;19.20;99.90
31131;DHT22;20292;50.944;4.034;2022-09-09T07:18:36;19.10;99.90
31131;DHT22;20292;50.944;4.034;2022-09-09T07:21:02;19.10;99.90
31131;DHT22;20292;50.944;4.034;2022-09-09T07:23:29;19.10;99.90
31131;DHT22;20292;50.944;4.034;2022-09-09T07:25:56;19.00;99.90
31131;DHT22;20292;50.944;4.034;2022-09-09T07:28:22;19.00;99.90
31131;DHT22;20292;50.944;4.034;2022-09-09T07:30:59;19.00;99.90
31131;DHT22;20292;50.944;4.034;2022-09-09T07:33:28;19.00;99.90
31131;DHT22;20292;50.944;4.034;2022-09-09T07:36:03;18.90;99.90
31131;DHT22;20292;50.944;4.034;2022-09-09T07:38:28;18.90;99.90
31131;DHT22;20292;50.944;4.034;2022-09-09T07:41:03;18.80;99.90
31131;DHT22;20292;50.944;4.034;2022-09-09T07:43:28;18.70;99.90
31131;DHT22;20292;50.944;4.034;2022-09-09T07:45:58;18.70;99.90
31131;DHT22;20292;50.944;4.034;2022-09-09T07:48:23;18.80;99.90
31131;DHT22;20292;50.944;4.034;2022-09-09T07:50:50;18.80;99.90
31131;DHT22;20292;50.944;4.034;2022-09-09T07:53:16;18.90;99.90
31131;DHT22;20292;50.944;4.034;2022-09-09T07:55:42;19.10;99.90
31131;DHT22;20292;50.944;4.034;2022-09-09T07:58:08;19.10;99.90
31131;DHT22;20292;50.944;4.034;2022-09-09T08:00:34;19.30;99.90
31131;DHT22;20292;50.944;4.034;2022-09-09T08:02:59;19.30;99.90
31131;DHT22;20292;50.944;4.034;2022-09-09T08:05:27;19.40;99.90
31131;DHT22;20292;50.944;4.034;2022-09-09T08:07:53;19.50;99.90
31131;DHT22;20292;50.944;4.034;2022-09-09T08:10:19;19.50;99.90
31131;DHT22;20292;50.944;4.034;2022-09-09T08:12:44;19.70;99.90
31131;DHT22;20292;50.944;4.034;2022-09-09T08:15:10;19.60;99.90
31131;DHT22;20292;50.944;4.034;2022-09-09T08:17:37;19.60;99.90
31131;DHT22;20292;50.944;4.034;2022-09-09T08:20:03;19.60;99.90
31131;DHT22;20292;50.944;4.034;2022-09-09T08:22:30;19.60;99.90
31131;DHT22;20292;50.944;4.034;2022-09-09T08:24:56;19.60;99.90
31131;DHT22;20292;50.944;4.034;2022-09-09T08:27:22;19.50;99.90
31131;DHT22;20292;50.944;4.034;2022-09-09T08:29:48;19.40;99.90
31131;DHT22;20292;50.944;4.034;2022-09-09T08:32:13;19.20;99.90
31131;DHT22;20292;50.944;4.034;2022-09-09T08:34:39;19.10;99.90
31131;DHT22;20292;50.944;4.034;2022-09-09T08:37:05;18.90;99.90
31131;DHT22;20292;50.944;4.034;2022-09-09T08:39:31;18.80;99.90
31131;DHT22;20292;50.944;4.034;2022-09-09T08:50:39;18.70;99.90
31131;DHT22;20292;50.944;4.034;2022-09-09T08:53:22;18.70;99.90
31131;DHT22;20292;50.944;4.034;2022-09-09T08:55:52;18.70;99.90
31131;DHT22;20292;50.944;4.034;2022-09-09T08:58:22;18.70;99.90
31131;DHT22;20292;50.944;4.034;2022-09-09T09:01:06;18.80;99.90
31131;DHT22;20292;50.944;4.034;2022-09-09T09:03:48;18.80;99.90
31131;DHT22;20292;50.944;4.034;2022-09-09T09:11:55;18.70;99.90
31131;DHT22;20292;50.944;4.034;2022-09-09T09:14:29;18.90;99.90
31131;DHT22;20292;50.944;4.034;2022-09-09T09:17:04;19.00;99.90
31131;DHT22;20292;50.944;4.034;2022-09-09T09:19:31;19.10;99.90
31131;DHT22;20292;50.944;4.034;2022-09-09T09:22:17;19.10;99.90
31131;DHT22;20292;50.944;4.034;2022-09-09T09:30:23;19.10;99.90
31131;DHT22;20292;50.944;4.034;2022-09-09T09:33:05;19.20;99.90
31131;DHT22;20292;50.944;4.034;2022-09-09T09:35:34;19.30;99.90
31131;DHT22;20292;50.944;4.034;2022-09-09T09:37:59;19.30;99.90
31131;DHT22;20292;50.944;4.034;2022-09-09T09:40:26;19.30;99.90
31131;DHT22;20292;50.944;4.034;2022-09-09T09:43:00;19.40;99.90
31131;DHT22;20292;50.944;4.034;2022-09-09T09:45:35;19.50;99.90
31131;DHT22;20292;50.944;4.034;2022-09-09T09:48:09;19.50;99.90
31131;DHT22;20292;50.944;4.034;2022-09-09T09:50:48;19.60;99.90
31131;DHT22;20292;50.944;4.034;2022-09-09T09:53:24;19.60;99.90
31131;DHT22;20292;50.944;4.034;2022-09-09T09:58:23;20.10;99.90
31131;DHT22;20292;50.944;4.034;2022-09-09T10:00:51;20.30;99.90
31131;DHT22;20292;50.944;4.034;2022-09-09T10:03:29;20.40;99.90
31131;DHT22;20292;50.944;4.034;2022-09-09T10:05:56;20.40;99.90
31131;DHT22;20292;50.944;4.034;2022-09-09T10:08:27;20.50;99.90
31131;DHT22;20292;50.944;4.034;2022-09-09T10:11:16;20.80;99.90
31131;DHT22;20292;50.944;4.034;2022-09-09T10:24:23;20.90;99.90
31131;DHT22;20292;50.944;4.034;2022-09-09T10:26:58;20.60;99.90
31131;DHT22;20292;50.944;4.034;2022-09-09T10:40:20;19.80;99.90
31131;DHT22;20292;50.944;4.034;2022-09-09T10:42:46;19.90;99.90
31131;DHT22;20292;50.944;4.034;2022-09-09T10:45:22;20.00;99.90
31131;DHT22;20292;50.944;4.034;2022-09-09T10:48:47;20.00;99.90
31131;DHT22;20292;50.944;4.034;2022-09-09T10:51:30;20.20;99.90
31131;DHT22;20292;50.944;4.034;2022-09-09T10:56:44;20.50;99.90
31131;DHT22;20292;50.944;4.034;2022-09-09T10:59:28;20.40;99.90
31131;DHT22;20292;50.944;4.034;2022-09-09T11:01:57;20.30;99.90
31131;DHT22;20292;50.944;4.034;2022-09-09T11:04:39;20.40;99.90
31131;DHT22;20292;50.944;4.034;2022-09-09T11:07:09;20.80;99.90
31131;DHT22;20292;50.944;4.034;2022-09-09T11:09:49;21.10;99.90
31131;DHT22;20292;50.944;4.034;2022-09-09T11:12:19;21.40;99.90
31131;DHT22;20292;50.944;4.034;2022-09-09T11:14:54;21.60;99.90
31131;DHT22;20292;50.944;4.034;2022-09-09T11:17:47;21.50;99.90
31131;DHT22;20292;50.944;4.034;2022-09-09T11:20:14;21.80;99.90
31131;DHT22;20292;50.944;4.034;2022-09-09T11:25:16;21.90;99.90
31131;DHT22;20292;50.944;4.034;2022-09-09T11:41:49;21.40;99.90
31131;DHT22;20292;50.944;4.034;2022-09-09T11:44:27;21.20;99.90
31131;DHT22;20292;50.944;4.034;2022-09-09T11:46:53;21.20;99.90
31131;DHT22;20292;50.944;4.034;2022-09-09T11:49:39;21.40;99.90
31131;DHT22;20292;50.944;4.034;2022-09-09T11:52:40;21.80;99.90
31131;DHT22;20292;50.944;4.034;2022-09-09T11:58:05;22.20;99.90
31131;DHT22;20292;50.944;4.034;2022-09-09T12:00:43;22.20;99.90
31131;DHT22;20292;50.944;4.034;2022-09-09T12:03:43;22.20;99.90
31131;DHT22;20292;50.944;4.034;2022-09-09T12:06:19;22.00;99.90
31131;DHT22;20292;50.944;4.034;2022-09-09T12:08:49;22.00;99.90
31131;DHT22;20292;50.944;4.034;2022-09-09T12:11:27;22.20;99.90
31131;DHT22;20292;50.944;4.034;2022-09-09T12:13:55;22.20;99.90
31131;DHT22;20292;50.944;4.034;2022-09-09T12:16:35;22.30;99.90
31131;DHT22;20292;50.944;4.034;2022-09-09T12:19:19;22.50;99.90
31131;DHT22;20292;50.944;4.034;2022-09-09T12:21:49;22.30;99.90
31131;DHT22;20292;50.944;4.034;2022-09-09T12:24:37;22.20;99.90
31131;DHT22;20292;50.944;4.034;2022-09-09T12:27:20;22.20;99.90
31131;DHT22;20292;50.944;4.034;2022-09-09T12:30:09;22.20;99.90
31131;DHT22;20292;50.944;4.034;2022-09-09T12:32:36;22.20;99.90
31131;DHT22;20292;50.944;4.034;2022-09-09T12:35:09;22.50;99.90
31131;DHT22;20292;50.944;4.034;2022-09-09T12:37:38;22.80;99.90
31131;DHT22;20292;50.944;4.034;2022-09-09T12:42:32;23.10;99.90
31131;DHT22;20292;50.944;4.034;2022-09-09T12:45:03;23.10;99.90
31131;DHT22;20292;50.944;4.034;2022-09-09T12:50:26;22.90;99.90
31131;DHT22;20292;50.944;4.034;2022-09-09T12:52:55;22.90;99.90
31131;DHT22;20292;50.944;4.034;2022-09-09T12:55:25;22.80;99.90
31131;DHT22;20292;50.944;4.034;2022-09-09T12:57:53;22.90;99.90
31131;DHT22;20292;50.944;4.034;2022-09-09T13:00:21;22.90;99.90
31131;DHT22;20292;50.944;4.034;2022-09-09T13:02:52;22.60;99.90
31131;DHT22;20292;50.944;4.034;2022-09-09T13:05:23;22.50;99.90
31131;DHT22;20292;50.944;4.034;2022-09-09T13:07:49;22.50;99.90
31131;DHT22;20292;50.944;4.034;2022-09-09T13:10:28;22.40;99.90
31131;DHT22;20292;50.944;4.034;2022-09-09T13:12:54;22.50;99.90
31131;DHT22;20292;50.944;4.034;2022-09-09T13:15:22;22.60;99.90
31131;DHT22;20292;50.944;4.034;2022-09-09T13:17:57;22.60;99.90
31131;DHT22;20292;50.944;4.034;2022-09-09T13:20:26;22.70;99.90
31131;DHT22;20292;50.944;4.034;2022-09-09T13:22:53;22.80;99.90
31131;DHT22;20292;50.944;4.034;2022-09-09T13:25:29;22.90;99.90
31131;DHT22;20292;50.944;4.034;2022-09-09T13:28:18;22.90;99.90
31131;DHT22;20292;50.944;4.034;2022-09-09T13:31:05;23.00;99.90
31131;DHT22;20292;50.944;4.034;2022-09-09T13:33:38;23.20;99.90
31131;DHT22;20292;50.944;4.034;2022-09-09T13:36:09;23.40;99.90
31131;DHT22;20292;50.944;4.034;2022-09-09T13:38:38;23.20;99.90
31131;DHT22;20292;50.944;4.034;2022-09-09T13:41:08;23.20;99.90
31131;DHT22;20292;50.944;4.034;2022-09-09T13:43:45;23.20;99.90
31131;DHT22;20292;50.944;4.034;2022-09-09T13:51:44;23.10;99.90
31131;DHT22;20292;50.944;4.034;2022-09-09T13:54:14;23.20;99.90
31131;DHT22;20292;50.944;4.034;2022-09-09T13:56:41;23.40;99.90
31131;DHT22;20292;50.944;4.034;2022-09-09T13:59:15;23.50;99.90
31131;DHT22;20292;50.944;4.034;2022-09-09T14:01:41;23.60;99.90
31131;DHT22;20292;50.944;4.034;2022-09-09T14:04:07;23.70;99.90
31131;DHT22;20292;50.944;4.034;2022-09-09T14:06:33;23.80;99.90
31131;DHT22;20292;50.944;4.034;2022-09-09T14:09:04;23.80;99.90
31131;DHT22;20292;50.944;4.034;2022-09-09T14:11:30;23.90;99.90
31131;DHT22;20292;50.944;4.034;2022-09-09T14:13:55;23.90;99.90
31131;DHT22;20292;50.944;4.034;2022-09-09T14:16:21;23.90;99.90
31131;DHT22;20292;50.944;4.034;2022-09-09T14:18:47;23.90;99.90
31131;DHT22;20292;50.944;4.034;2022-09-09T14:21:13;24.20;99.90
31131;DHT22;20292;50.944;4.034;2022-09-09T14:23:41;24.30;99.90
31131;DHT22;20292;50.944;4.034;2022-09-09T14:26:07;24.40;99.90
31131;DHT22;20292;50.944;4.034;2022-09-09T14:28:33;24.60;99.90
31131;DHT22;20292;50.944;4.034;2022-09-09T14:31:01;24.50;99.90
31131;DHT22;20292;50.944;4.034;2022-09-09T14:33:27;24.50;99.90
31131;DHT22;20292;50.944;4.034;2022-09-09T14:36:00;24.40;99.90
31131;DHT22;20292;50.944;4.034;2022-09-09T14:38:31;24.30;99.90
31131;DHT22;20292;50.944;4.034;2022-09-09T14:40:59;24.10;99.90
31131;DHT22;20292;50.944;4.034;2022-09-09T14:43:25;23.90;99.90
31131;DHT22;20292;50.944;4.034;2022-09-09T14:45:52;23.80;99.90
31131;DHT22;20292;50.944;4.034;2022-09-09T14:48:18;23.50;99.90
31131;DHT22;20292;50.944;4.034;2022-09-09T14:50:43;23.20;99.90
31131;DHT22;20292;50.944;4.034;2022-09-09T14:53:09;23.30;99.90
31131;DHT22;20292;50.944;4.034;2022-09-09T14:55:36;23.30;99.90
31131;DHT22;20292;50.944;4.034;2022-09-09T14:58:02;23.30;99.90
31131;DHT22;20292;50.944;4.034;2022-09-09T15:00:28;23.40;99.90
31131;DHT22;20292;50.944;4.034;2022-09-09T15:02:54;23.20;99.90
31131;DHT22;20292;50.944;4.034;2022-09-09T15:05:20;22.90;99.90
31131;DHT22;20292;50.944;4.034;2022-09-09T15:07:46;22.60;99.90
31131;DHT22;20292;50.944;4.034;2022-09-09T15:10:12;22.40;99.90
31131;DHT22;20292;50.944;4.034;2022-09-09T15:12:38;22.30;99.90
31131;DHT22;20292;50.944;4.034;2022-09-09T15:15:04;22.30;99.90
31131;DHT22;20292;50.944;4.034;2022-09-09T15:17:30;22.40;99.90
31131;DHT22;20292;50.944;4.034;2022-09-09T15:19:56;22.40;99.90
31131;DHT22;20292;50.944;4.034;2022-09-09T15:22:21;22.50;99.90
31131;DHT22;20292;50.944;4.034;2022-09-09T15:24:47;22.40;99.90
31131;DHT22;20292;50.944;4.034;2022-09-09T15:27:13;22.20;99.90
31131;DHT22;20292;50.944;4.034;2022-09-09T15:29:40;22.20;99.90
31131;DHT22;20292;50.944;4.034;2022-09-09T15:32:07;22.20;99.90
31131;DHT22;20292;50.944;4.034;2022-09-09T15:34:32;22.20;99.90
31131;DHT22;20292;50.944;4.034;2022-09-09T15:36:58;22.00;99.90
31131;DHT22;20292;50.944;4.034;2022-09-09T15:39:25;21.80;99.90
31131;DHT22;20292;50.944;4.034;2022-09-09T15:41:51;21.60;99.90
31131;DHT22;20292;50.944;4.034;2022-09-09T15:44:17;21.50;99.90
31131;DHT22;20292;50.944;4.034;2022-09-09T15:46:51;21.50;99.90
31131;DHT22;20292;50.944;4.034;2022-09-09T15:49:20;21.40;99.90
31131;DHT22;20292;50.944;4.034;2022-09-09T15:51:57;21.40;99.90
31131;DHT22;20292;50.944;4.034;2022-09-09T15:54:25;21.50;99.90
31131;DHT22;20292;50.944;4.034;2022-09-09T15:56:56;21.60;99.90
31131;DHT22;20292;50.944;4.034;2022-09-09T15:59:23;21.60;99.90
31131;DHT22;20292;50.944;4.034;2022-09-09T16:01:49;21.60;99.90
31131;DHT22;20292;50.944;4.034;2022-09-09T16:04:18;21.50;99.90
31131;DHT22;20292;50.944;4.034;2022-09-09T16:07:00;21.50;99.90
31131;DHT22;20292;50.944;4.034;2022-09-09T16:09:26;21.40;99.90
31131;DHT22;20292;50.944;4.034;2022-09-09T16:11:53;21.30;99.90
31131;DHT22;20292;50.944;4.034;2022-09-09T16:14:21;21.20;99.90
31131;DHT22;20292;50.944;4.034;2022-09-09T16:16:47;21.20;99.90
31131;DHT22;20292;50.944;4.034;2022-09-09T16:19:13;21.10;99.90
31131;DHT22;20292;50.944;4.034;2022-09-09T16:21:42;20.90;99.90
31131;DHT22;20292;50.944;4.034;2022-09-09T16:24:09;20.80;99.90
31131;DHT22;20292;50.944;4.034;2022-09-09T16:26:37;20.30;99.90
31131;DHT22;20292;50.944;4.034;2022-09-09T16:29:03;20.30;99.90
31131;DHT22;20292;50.944;4.034;2022-09-09T16:31:30;20.30;99.90
31131;DHT22;20292;50.944;4.034;2022-09-09T16:33:57;20.30;99.90
31131;DHT22;20292;50.944;4.034;2022-09-09T16:36:25;20.20;99.90
31131;DHT22;20292;50.944;4.034;2022-09-09T16:38:55;20.30;99.90
31131;DHT22;20292;50.944;4.034;2022-09-09T16:41:22;20.30;99.90
31131;DHT22;20292;50.944;4.034;2022-09-09T16:43:53;20.50;99.90
31131;DHT22;20292;50.944;4.034;2022-09-09T16:46:20;20.60;99.90
31131;DHT22;20292;50.944;4.034;2022-09-09T16:48:47;20.80;99.90
31131;DHT22;20292;50.944;4.034;2022-09-09T16:53:43;21.10;99.90
31131;DHT22;20292;50.944;4.034;2022-09-09T16:56:16;21.30;99.90
31131;DHT22;20292;50.944;4.034;2022-09-09T16:58:42;21.40;99.90
31131;DHT22;20292;50.944;4.034;2022-09-09T17:01:09;21.50;99.90
31131;DHT22;20292;50.944;4.034;2022-09-09T17:03:35;21.50;99.90
31131;DHT22;20292;50.944;4.034;2022-09-09T17:06:02;21.50;99.90
31131;DHT22;20292;50.944;4.034;2022-09-09T17:08:31;21.50;99.90
31131;DHT22;20292;50.944;4.034;2022-09-09T17:10:58;21.40;99.90
31131;DHT22;20292;50.944;4.034;2022-09-09T17:13:24;21.50;99.90
31131;DHT22;20292;50.944;4.034;2022-09-09T17:15:50;21.60;99.90
31131;DHT22;20292;50.944;4.034;2022-09-09T17:18:16;21.50;99.90
31131;DHT22;20292;50.944;4.034;2022-09-09T17:20:42;21.50;99.90
31131;DHT22;20292;50.944;4.034;2022-09-09T17:23:10;21.40;99.90
31131;DHT22;20292;50.944;4.034;2022-09-09T17:25:37;21.30;99.90
31131;DHT22;20292;50.944;4.034;2022-09-09T17:28:03;21.30;99.90
31131;DHT22;20292;50.944;4.034;2022-09-09T17:30:33;21.20;99.90
31131;DHT22;20292;50.944;4.034;2022-09-09T17:32:59;21.10;99.90
31131;DHT22;20292;50.944;4.034;2022-09-09T17:35:24;20.90;99.90
31131;DHT22;20292;50.944;4.034;2022-09-09T17:37:52;20.90;99.90
31131;DHT22;20292;50.944;4.034;2022-09-09T17:40:17;20.90;99.90
31131;DHT22;20292;50.944;4.034;2022-09-09T17:42:43;20.70;99.90